createdAt,value
2023-11-20T00:01:04.590Z,2.67
2023-11-20T00:06:06.283Z,2.38
2023-11-20T00:11:07.818Z,2.45
2023-11-20T00:16:11.397Z,2.33
2023-11-20T00:21:13.846Z,2.75
2023-11-20T00:26:15.613Z,2.58
2023-11-20T00:31:17.224Z,2.13
2023-11-20T00:36:19.880Z,2.25
2023-11-20T00:41:21.578Z,2.20
2023-11-20T00:46:23.417Z,2.25
2023-11-20T00:51:26.553Z,2.28
2023-11-20T00:56:29.757Z,2.10
2023-11-20T01:01:37.673Z,2.15
2023-11-20T01:06:41.099Z,2.20
2023-11-20T01:11:45.495Z,2.10
2023-11-20T01:16:47.085Z,2.22
2023-11-20T01:21:48.697Z,2.53
2023-11-20T01:26:50.396Z,1.98
2023-11-20T01:31:51.938Z,2.55
2023-11-20T01:36:53.589Z,1.95
2023-11-20T01:41:55.129Z,1.80
2023-11-20T01:46:57.473Z,2.10
2023-11-20T01:51:59.697Z,2.20
2023-11-20T01:57:02.811Z,3.05
2023-11-20T02:02:04.618Z,2.35
2023-11-20T02:07:09.172Z,2.70
2023-11-20T02:12:11.059Z,2.60
2023-11-20T02:17:12.583Z,3.03
2023-11-20T02:22:14.247Z,2.17
2023-11-20T02:27:46.686Z,3.10
2023-11-20T02:32:48.342Z,2.33
2023-11-20T02:37:49.903Z,2.33
2023-11-20T02:42:51.615Z,3.15
2023-11-20T02:47:53.776Z,2.20
2023-11-20T02:52:55.981Z,2.88
2023-11-20T02:57:57.733Z,3.15
2023-11-20T03:02:59.331Z,2.83
2023-11-20T03:08:01.055Z,2.15
2023-11-20T03:13:02.743Z,2.85
2023-11-20T03:18:05.122Z,2.60
2023-11-20T03:23:06.819Z,2.50
2023-11-20T03:28:08.395Z,2.88
2023-11-20T03:33:10.088Z,2.58
2023-11-20T03:38:11.690Z,2.38
2023-11-20T03:43:13.391Z,2.42
2023-11-20T03:48:15.010Z,2.88
2023-11-20T03:53:16.525Z,1.95
2023-11-20T03:58:18.100Z,2.58
2023-11-20T04:03:20.298Z,2.17
2023-11-20T04:08:22.523Z,2.55
2023-11-20T04:13:24.151Z,1.90
2023-11-20T04:18:25.771Z,1.90
2023-11-20T04:23:27.651Z,1.90
2023-11-20T04:28:32.134Z,1.83
2023-11-20T04:33:33.869Z,2.22
2023-11-20T04:38:36.807Z,2.07
2023-11-20T04:43:39.545Z,1.60
2023-11-20T04:48:41.347Z,1.42
2023-11-20T04:53:44.077Z,1.63
2023-11-20T04:58:46.347Z,1.80
2023-11-20T05:03:49.824Z,1.92
2023-11-20T05:08:51.666Z,1.85
2023-11-20T05:13:53.208Z,2.40
2023-11-20T05:18:55.021Z,1.90
2023-11-20T05:23:56.574Z,2.00
2023-11-20T05:28:58.372Z,2.65
2023-11-20T05:34:00.001Z,2.47
2023-11-20T05:39:01.758Z,2.53
2023-11-20T05:44:03.324Z,2.47
2023-11-20T05:49:05.042Z,2.42
2023-11-20T05:54:10.077Z,3.17
2023-11-20T05:59:11.614Z,3.42
2023-11-20T06:04:15.691Z,3.22
2023-11-20T06:09:17.445Z,3.08
2023-11-20T06:14:19.239Z,3.38
2023-11-20T06:19:21.137Z,2.95
2023-11-20T06:24:22.713Z,3.25
2023-11-20T06:29:24.266Z,3.13
2023-11-20T06:34:25.797Z,3.65
2023-11-20T06:39:27.966Z,2.78
2023-11-20T06:44:29.582Z,4.30
2023-11-20T06:49:31.232Z,3.63
2023-11-20T06:54:32.816Z,3.95
2023-11-20T06:59:34.526Z,5.55
2023-11-20T07:04:39.323Z,3.70
2023-11-20T07:09:40.939Z,3.22
2023-11-20T07:14:42.520Z,4.97
2023-11-20T07:19:44.019Z,5.05
2023-11-20T07:24:45.649Z,3.60
2023-11-20T07:29:47.573Z,3.20
2023-11-20T07:34:49.205Z,4.03
2023-11-20T07:39:50.782Z,4.13
2023-11-20T07:44:52.441Z,3.60
2023-11-20T07:49:53.952Z,4.15
2023-11-20T07:54:55.485Z,3.95
2023-11-20T07:59:57.048Z,4.38
2023-11-20T08:05:00.083Z,3.50
2023-11-20T08:10:05.632Z,4.07
2023-11-20T08:15:11.655Z,5.40
2023-11-20T08:20:13.181Z,4.32
2023-11-20T08:25:15.112Z,4.25
2023-11-20T08:30:16.774Z,4.10
2023-11-20T08:35:18.292Z,3.30
2023-11-20T08:40:20.003Z,4.05
2023-11-20T08:45:21.649Z,4.82
2023-11-20T08:50:26.743Z,3.40
2023-11-20T08:55:28.479Z,3.22
2023-11-20T09:00:30.122Z,3.45
2023-11-20T09:05:31.777Z,2.72
2023-11-20T09:10:33.455Z,3.03
2023-11-20T09:15:35.007Z,3.10
2023-11-20T09:20:37.458Z,2.97
2023-11-20T09:25:40.318Z,4.53
2023-11-20T09:30:42.061Z,2.85
2023-11-20T09:35:43.627Z,4.67
2023-11-20T09:40:46.320Z,3.15
2023-11-20T09:45:53.736Z,3.10
2023-11-20T09:51:07.424Z,4.70
2023-11-20T09:56:14.906Z,3.25
2023-11-20T10:01:18.654Z,3.60
2023-11-20T10:06:22.970Z,3.25
2023-11-20T10:11:24.752Z,3.28
2023-11-20T10:16:28.408Z,3.50
2023-11-20T10:21:30.875Z,3.75
2023-11-20T10:26:34.812Z,3.75
2023-11-20T10:31:46.837Z,3.47
2023-11-20T10:37:21.873Z,2.90
2023-11-20T10:42:23.680Z,2.20
2023-11-20T10:47:26.224Z,4.95
2023-11-20T10:52:31.989Z,2.40
2023-11-20T10:57:34.464Z,2.60
2023-11-20T11:02:39.299Z,2.72
2023-11-20T11:07:42.531Z,3.75
2023-11-20T11:12:45.907Z,2.95
2023-11-20T11:17:59.530Z,5.15
2023-11-20T11:23:08.522Z,1.92
2023-11-20T11:28:15.592Z,2.83
2023-11-20T11:33:36.107Z,1.60
2023-11-20T11:38:42.344Z,1.90
2023-11-20T11:44:28.199Z,3.65
2023-11-20T11:49:31.091Z,2.63
2023-11-20T11:54:33.566Z,2.05
2023-11-20T11:59:39.790Z,1.77
2023-11-20T12:04:50.887Z,3.35
2023-11-20T12:09:56.744Z,1.92
2023-11-20T12:14:58.586Z,3.10
2023-11-20T12:20:01.557Z,3.33
2023-11-20T12:25:03.671Z,2.45
2023-11-20T12:30:06.420Z,2.80
2023-11-20T12:35:11.214Z,2.67
2023-11-20T12:40:13.206Z,2.63
2023-11-20T12:45:14.891Z,2.60
2023-11-20T12:50:18.675Z,3.30
2023-11-20T12:55:21.675Z,2.63
2023-11-20T13:00:24.755Z,6.20
2023-11-20T13:05:28.884Z,2.70
2023-11-20T13:10:34.950Z,3.65
2023-11-20T13:15:36.848Z,2.83
2023-11-20T13:20:43.510Z,2.10
2023-11-20T13:25:47.339Z,4.00
2023-11-20T13:30:55.487Z,2.63
2023-11-20T13:35:58.678Z,2.60
2023-11-20T13:41:01.064Z,3.45
2023-11-20T13:46:03.331Z,4.50
2023-11-20T13:51:06.602Z,3.58
2023-11-20T13:56:08.826Z,2.80
2023-11-20T14:01:11.409Z,3.67
2023-11-20T14:06:13.269Z,3.50
2023-11-20T14:11:14.779Z,4.22
2023-11-20T14:16:16.803Z,6.63
2023-11-20T14:21:18.537Z,3.40
2023-11-20T14:26:29.595Z,3.35
2023-11-20T14:31:36.563Z,2.60
2023-11-20T14:36:38.950Z,5.95
2023-11-20T14:41:40.572Z,2.78
2023-11-20T14:46:42.321Z,3.40
2023-11-20T14:51:44.125Z,2.55
2023-11-20T14:56:45.876Z,4.32
2023-11-20T15:01:47.509Z,4.03
2023-11-20T15:06:49.099Z,3.28
2023-11-20T15:11:50.616Z,3.70
2023-11-20T15:16:52.469Z,3.25
2023-11-20T15:21:55.157Z,4.05
2023-11-20T15:26:56.772Z,3.15
2023-11-20T15:31:58.326Z,3.30
2023-11-20T15:36:59.960Z,2.55
2023-11-20T15:42:01.900Z,2.72
2023-11-20T15:47:04.378Z,3.13
2023-11-20T15:52:06.132Z,2.70
2023-11-20T15:57:08.017Z,2.40
2023-11-20T16:02:10.783Z,2.58
2023-11-20T16:07:13.326Z,3.53
2023-11-20T16:12:16.358Z,4.75
2023-11-20T16:17:18.097Z,3.33
2023-11-20T16:22:20.741Z,3.17
2023-11-20T16:27:22.486Z,3.38
2023-11-20T16:32:24.198Z,3.40
2023-11-20T16:37:26.927Z,3.80
2023-11-20T16:42:29.879Z,4.72
2023-11-20T16:47:31.555Z,5.03
2023-11-20T16:52:33.130Z,3.78
2023-11-20T16:57:34.898Z,4.47
2023-11-20T17:02:36.580Z,4.93
2023-11-20T17:07:38.646Z,3.30
2023-11-20T17:12:40.203Z,3.57
2023-11-20T17:17:41.815Z,3.53
2023-11-20T17:22:44.533Z,4.22
2023-11-20T17:27:47.172Z,3.70
2023-11-20T17:32:49.907Z,6.28
2023-11-20T17:37:51.580Z,5.28
2023-11-20T17:42:53.161Z,6.68
2023-11-20T17:47:54.799Z,6.50
2023-11-20T17:52:56.518Z,6.75
2023-11-20T17:57:58.164Z,7.07
2023-11-20T18:02:59.814Z,6.80
2023-11-20T18:08:01.418Z,6.40
2023-11-20T18:13:03.993Z,5.57
2023-11-20T18:18:06.209Z,5.88
2023-11-20T18:23:07.846Z,6.43
2023-11-20T18:28:09.516Z,6.18
2023-11-20T18:33:12.193Z,9.10
2023-11-20T18:38:13.814Z,6.50
2023-11-20T18:43:15.437Z,5.00
2023-11-20T18:48:17.837Z,7.17
2023-11-20T18:53:19.987Z,7.90
2023-11-20T18:58:21.954Z,8.83
2023-11-20T19:03:23.654Z,7.20
2023-11-20T19:08:26.555Z,7.60
2023-11-20T19:13:28.175Z,6.67
2023-11-20T19:18:31.288Z,6.73
2023-11-20T19:23:32.831Z,7.27
2023-11-20T19:28:34.357Z,6.60
2023-11-20T19:33:36.106Z,6.17
2023-11-20T19:38:39.091Z,5.97
2023-11-20T19:43:40.758Z,6.90
2023-11-20T19:48:43.604Z,7.70
2023-11-20T19:53:47.765Z,7.23
2023-11-20T19:58:49.688Z,6.70
2023-11-20T20:03:52.669Z,8.68
2023-11-20T20:08:54.452Z,8.43
2023-11-20T20:13:56.069Z,9.60
2023-11-20T20:18:59.249Z,9.80
2023-11-20T20:24:01.121Z,9.67
2023-11-20T20:29:02.777Z,8.60
2023-11-20T20:34:06.904Z,8.07
2023-11-20T20:39:09.786Z,9.07
2023-11-20T20:44:11.396Z,8.27
2023-11-20T20:49:13.140Z,8.10
2023-11-20T20:54:14.778Z,8.63
2023-11-20T20:59:17.387Z,7.30
2023-11-20T21:04:18.943Z,7.33
2023-11-20T21:09:22.004Z,8.70
2023-11-20T21:14:27.096Z,11.57
2023-11-20T21:19:29.841Z,9.50
2023-11-20T21:24:31.617Z,9.33
2023-11-20T21:29:33.260Z,10.40
2023-11-20T21:34:35.587Z,10.97
2023-11-20T21:39:37.642Z,10.47
2023-11-20T21:44:40.379Z,10.33
2023-11-20T21:49:42.449Z,12.70
2023-11-20T21:54:44.000Z,11.80
2023-11-20T21:59:45.697Z,10.23
2023-11-20T22:04:47.771Z,8.70
2023-11-20T22:09:49.370Z,11.10
2023-11-20T22:14:50.907Z,10.63
2023-11-20T22:19:52.761Z,9.80
2023-11-20T22:24:54.330Z,9.10
2023-11-20T22:29:56.119Z,11.03
2023-11-20T22:35:10.450Z,9.97
2023-11-20T22:40:17.346Z,9.10
2023-11-20T22:45:19.371Z,9.18
2023-11-20T22:50:20.997Z,10.88
2023-11-20T22:55:25.369Z,9.63
2023-11-20T23:00:29.537Z,9.48
2023-11-20T23:05:31.089Z,9.37
2023-11-20T23:10:32.705Z,9.37
2023-11-20T23:15:36.576Z,8.97
2023-11-20T23:20:38.441Z,9.07
2023-11-20T23:25:40.126Z,9.43
2023-11-20T23:30:42.376Z,9.33
2023-11-20T23:35:43.944Z,10.40
2023-11-20T23:40:48.442Z,16.90
2023-11-20T23:45:54.832Z,10.57
2023-11-20T23:50:56.731Z,10.27
2023-11-20T23:55:59.167Z,9.73
